MSR664 OEJN-HECA
Flight info
| Callsign | MSR664 |
|---|---|
| Flight time | 1h 32m |
| Altitude | 38000 |
| Route | MIGDA L677 CVO |
| Aircraft | B77W/H-SDE1E2E3FGHIJ2J3J4J5M1RWXY/LB1D1 |
Departure
| Time | 2026-05-07 14:14 |
|---|---|
| Airport | King Abdulaziz International Airport (OEJN) |
Arrival
| Time | 2026-05-07 15:46 |
|---|---|
| Airport | Cairo International Airport (HECA) |
| Time | Latitude | Longitude | Altitude | Speed | Heading |
|---|---|---|---|---|---|
| 2026-05-07 13:44 | 21.66988 | 39.16577 | 62 ft | 0 kts | 10° |
| 2026-05-07 14:00 | 21.66986 | 39.16577 | 62 ft | 2 kts | 10° |
| 2026-05-07 14:00 | 21.66970 | 39.16574 | 62 ft | 2 kts | 10° |
| 2026-05-07 14:01 | 21.66958 | 39.16572 | 62 ft | 1 kts | 10° |
| 2026-05-07 14:01 | 21.66940 | 39.16570 | 62 ft | 2 kts | 351° |
| 2026-05-07 14:01 | 21.66922 | 39.16576 | 62 ft | 2 kts | 329° |
| 2026-05-07 14:01 | 21.66907 | 39.16589 | 62 ft | 2 kts | 308° |
| 2026-05-07 14:02 | 21.66898 | 39.16607 | 62 ft | 2 kts | 287° |
| 2026-05-07 14:02 | 21.66896 | 39.16618 | 62 ft | 1 kts | 279° |
| 2026-05-07 14:06 | 21.66896 | 39.16604 | 62 ft | 5 kts | 270° |
| 2026-05-07 14:06 | 21.66876 | 39.16530 | 62 ft | 10 kts | 238° |
| 2026-05-07 14:06 | 21.66810 | 39.16514 | 62 ft | 11 kts | 164° |
| 2026-05-07 14:07 | 21.66719 | 39.16548 | 62 ft | 16 kts | 157° |
| 2026-05-07 14:07 | 21.66606 | 39.16594 | 62 ft | 0 kts | 160° |
| 2026-05-07 14:07 | 21.66598 | 39.16596 | 62 ft | 1 kts | 160° |
| 2026-05-07 14:07 | 21.66590 | 39.16600 | 62 ft | 0 kts | 160° |
| 2026-05-07 14:11 | 21.66582 | 39.16603 | 62 ft | 3 kts | 159° |
| 2026-05-07 14:11 | 21.66529 | 39.16624 | 62 ft | 13 kts | 159° |
| 2026-05-07 14:11 | 21.66423 | 39.16665 | 62 ft | 16 kts | 159° |
| 2026-05-07 14:12 | 21.66315 | 39.16709 | 62 ft | 16 kts | 160° |
| 2026-05-07 14:12 | 21.66220 | 39.16729 | 62 ft | 9 kts | 225° |
| 2026-05-07 14:12 | 21.66188 | 39.16664 | 62 ft | 8 kts | 244° |
| 2026-05-07 14:12 | 21.66163 | 39.16595 | 62 ft | 9 kts | 253° |
| 2026-05-07 14:13 | 21.66149 | 39.16502 | 62 ft | 14 kts | 284° |
| 2026-05-07 14:13 | 21.66241 | 39.16442 | 62 ft | 21 kts | 341° |
| 2026-05-07 14:13 | 21.66611 | 39.16293 | 62 ft | 98 kts | 340° |
| 2026-05-07 14:13 | 21.67563 | 39.15924 | 188 ft | 171 kts | 341° |
| 2026-05-07 14:14 | 21.68887 | 39.15526 | 1054 ft | 197 kts | 340° |
| 2026-05-07 14:14 | 21.70014 | 39.15002 | 2708 ft | 158 kts | 338° |
| 2026-05-07 14:14 | 21.71169 | 39.14505 | 3182 ft | 178 kts | 340° |
| 2026-05-07 14:14 | 21.72454 | 39.13998 | 3628 ft | 200 kts | 340° |
| 2026-05-07 14:15 | 21.73985 | 39.13393 | 4199 ft | 222 kts | 340° |
| 2026-05-07 14:15 | 21.75661 | 39.12732 | 4822 ft | 244 kts | 340° |
| 2026-05-07 14:15 | 21.77451 | 39.12025 | 5422 ft | 266 kts | 339° |
| 2026-05-07 14:15 | 21.79357 | 39.11271 | 6094 ft | 285 kts | 339° |
| 2026-05-07 14:16 | 21.81331 | 39.10491 | 7107 ft | 288 kts | 339° |
| 2026-05-07 14:16 | 21.83338 | 39.09698 | 8182 ft | 289 kts | 338° |
| 2026-05-07 14:16 | 21.85308 | 39.08919 | 9088 ft | 294 kts | 338° |
| 2026-05-07 14:16 | 21.87244 | 39.08153 | 10028 ft | 298 kts | 338° |
| 2026-05-07 14:17 | 21.89281 | 39.07346 | 10654 ft | 315 kts | 338° |
| 2026-05-07 14:17 | 21.91476 | 39.06401 | 11153 ft | 336 kts | 334° |
| 2026-05-07 14:17 | 21.93768 | 39.05279 | 11677 ft | 358 kts | 334° |
| 2026-05-07 14:17 | 21.96119 | 39.04137 | 12180 ft | 377 kts | 334° |
| 2026-05-07 14:18 | 21.98603 | 39.02943 | 12758 ft | 394 kts | 334° |
| 2026-05-07 14:18 | 22.01182 | 39.01708 | 13487 ft | 408 kts | 334° |
| 2026-05-07 14:18 | 22.03773 | 39.00467 | 14502 ft | 412 kts | 334° |
| 2026-05-07 14:18 | 22.06410 | 38.99204 | 15524 ft | 417 kts | 334° |
| 2026-05-07 14:19 | 22.09050 | 38.97940 | 16473 ft | 423 kts | 333° |
| 2026-05-07 14:19 | 22.11800 | 38.96622 | 17415 ft | 429 kts | 333° |
| 2026-05-07 14:19 | 22.14522 | 38.95317 | 18313 ft | 435 kts | 333° |
| 2026-05-07 14:19 | 22.17297 | 38.93986 | 19276 ft | 438 kts | 333° |
| 2026-05-07 14:20 | 22.20110 | 38.92641 | 20202 ft | 443 kts | 333° |
| 2026-05-07 14:20 | 22.22966 | 38.91276 | 21098 ft | 447 kts | 333° |
| 2026-05-07 14:20 | 22.25815 | 38.89914 | 21963 ft | 451 kts | 332° |
| 2026-05-07 14:20 | 22.28702 | 38.88531 | 22796 ft | 455 kts | 332° |
| 2026-05-07 14:21 | 22.31608 | 38.87136 | 23588 ft | 461 kts | 332° |
| 2026-05-07 14:21 | 22.34598 | 38.85701 | 24298 ft | 468 kts | 332° |
| 2026-05-07 14:21 | 22.37605 | 38.84256 | 25039 ft | 474 kts | 332° |
| 2026-05-07 14:21 | 22.40632 | 38.82802 | 25819 ft | 479 kts | 331° |
| 2026-05-07 14:22 | 22.43688 | 38.81332 | 26602 ft | 484 kts | 331° |
| 2026-05-07 14:22 | 22.46780 | 38.79844 | 27330 ft | 489 kts | 330° |
| 2026-05-07 14:22 | 22.49894 | 38.78345 | 28047 ft | 495 kts | 330° |
| 2026-05-07 14:22 | 22.53060 | 38.76820 | 28749 ft | 500 kts | 330° |
| 2026-05-07 14:23 | 22.56319 | 38.75250 | 29527 ft | 504 kts | 330° |
| 2026-05-07 14:23 | 22.59536 | 38.73702 | 30513 ft | 502 kts | 330° |
| 2026-05-07 14:23 | 22.62728 | 38.72165 | 31450 ft | 500 kts | 329° |
| 2026-05-07 14:23 | 22.65931 | 38.70642 | 32276 ft | 500 kts | 330° |
| 2026-05-07 14:24 | 22.69176 | 38.69202 | 33025 ft | 501 kts | 331° |
| 2026-05-07 14:24 | 22.72511 | 38.67737 | 33778 ft | 500 kts | 331° |
| 2026-05-07 14:24 | 22.75848 | 38.66267 | 34458 ft | 500 kts | 330° |
| 2026-05-07 14:24 | 22.79207 | 38.64785 | 35213 ft | 498 kts | 330° |
| 2026-05-07 14:25 | 22.82449 | 38.63351 | 35764 ft | 499 kts | 329° |
| 2026-05-07 14:25 | 22.85724 | 38.61899 | 36275 ft | 501 kts | 329° |
| 2026-05-07 14:25 | 22.88954 | 38.60465 | 36697 ft | 503 kts | 329° |
| 2026-05-07 14:25 | 22.92226 | 38.59012 | 37264 ft | 501 kts | 329° |
| 2026-05-07 14:26 | 22.95458 | 38.57576 | 37683 ft | 502 kts | 328° |
| 2026-05-07 14:26 | 22.99017 | 38.55991 | 37800 ft | 506 kts | 328° |
| 2026-05-07 14:26 | 23.02367 | 38.54499 | 37804 ft | 505 kts | 328° |
| 2026-05-07 14:27 | 23.09271 | 38.51417 | 37811 ft | 521 kts | 328° |
| 2026-05-07 14:27 | 23.16378 | 38.48243 | 37790 ft | 532 kts | 329° |
| 2026-05-07 14:28 | 23.23541 | 38.45048 | 37791 ft | 530 kts | 329° |
| 2026-05-07 14:28 | 23.30833 | 38.41788 | 37793 ft | 531 kts | 329° |
| 2026-05-07 14:29 | 23.38053 | 38.38558 | 37793 ft | 529 kts | 328° |
| 2026-05-07 14:29 | 23.45284 | 38.35315 | 37796 ft | 530 kts | 329° |
| 2026-05-07 14:30 | 23.52476 | 38.32089 | 37814 ft | 527 kts | 328° |
| 2026-05-07 14:30 | 23.59488 | 38.28935 | 37813 ft | 530 kts | 328° |
| 2026-05-07 14:31 | 23.66313 | 38.25867 | 37815 ft | 526 kts | 328° |
| 2026-05-07 14:31 | 23.73114 | 38.22800 | 37816 ft | 526 kts | 328° |
| 2026-05-07 14:32 | 23.80010 | 38.19690 | 37818 ft | 527 kts | 328° |
| 2026-05-07 14:32 | 23.87416 | 38.16344 | 37813 ft | 527 kts | 328° |
| 2026-05-07 14:33 | 23.95106 | 38.12867 | 37812 ft | 524 kts | 328° |
| 2026-05-07 14:33 | 24.02624 | 38.09461 | 37803 ft | 527 kts | 328° |
| 2026-05-07 14:34 | 24.10276 | 38.05994 | 37793 ft | 522 kts | 328° |
| 2026-05-07 14:34 | 24.17531 | 38.01942 | 37784 ft | 506 kts | 316° |
| 2026-05-07 14:35 | 24.24227 | 37.96935 | 37789 ft | 507 kts | 316° |
| 2026-05-07 14:35 | 24.30954 | 37.91882 | 37802 ft | 508 kts | 316° |
| 2026-05-07 14:36 | 24.37659 | 37.86844 | 37821 ft | 506 kts | 316° |
| 2026-05-07 14:36 | 24.44347 | 37.81810 | 37841 ft | 506 kts | 316° |
| 2026-05-07 14:37 | 24.51043 | 37.76766 | 37866 ft | 508 kts | 316° |
| 2026-05-07 14:37 | 24.60933 | 37.69305 | 37912 ft | 508 kts | 316° |
| 2026-05-07 14:38 | 24.67407 | 37.64412 | 37928 ft | 508 kts | 316° |
| 2026-05-07 14:38 | 24.73857 | 37.59535 | 37924 ft | 506 kts | 316° |
| 2026-05-07 14:39 | 24.80368 | 37.54600 | 37907 ft | 509 kts | 316° |
| 2026-05-07 14:39 | 24.86907 | 37.49641 | 37882 ft | 505 kts | 316° |
| 2026-05-07 14:40 | 24.93409 | 37.44703 | 37878 ft | 506 kts | 316° |
| 2026-05-07 14:40 | 24.99874 | 37.39787 | 37877 ft | 506 kts | 317° |
| 2026-05-07 14:41 | 25.06373 | 37.34837 | 37870 ft | 508 kts | 316° |
| 2026-05-07 14:41 | 25.12759 | 37.29968 | 37859 ft | 509 kts | 316° |
| 2026-05-07 14:42 | 25.19256 | 37.25007 | 37846 ft | 509 kts | 317° |
| 2026-05-07 14:42 | 25.25832 | 37.19980 | 37839 ft | 508 kts | 317° |
| 2026-05-07 14:43 | 25.32335 | 37.15000 | 37834 ft | 511 kts | 317° |
| 2026-05-07 14:43 | 25.38820 | 37.10028 | 37825 ft | 510 kts | 317° |
| 2026-05-07 14:44 | 25.44984 | 37.05296 | 37840 ft | 509 kts | 317° |
| 2026-05-07 14:44 | 25.51317 | 37.00427 | 37848 ft | 510 kts | 317° |
| 2026-05-07 14:45 | 25.57743 | 36.95482 | 37839 ft | 507 kts | 317° |
| 2026-05-07 14:45 | 25.64227 | 36.90482 | 37840 ft | 509 kts | 317° |
| 2026-05-07 14:46 | 25.70678 | 36.85502 | 37840 ft | 510 kts | 317° |
| 2026-05-07 14:46 | 25.77103 | 36.80537 | 37840 ft | 509 kts | 317° |
| 2026-05-07 14:47 | 25.83271 | 36.75763 | 37838 ft | 508 kts | 317° |
| 2026-05-07 14:47 | 25.89357 | 36.71046 | 37834 ft | 509 kts | 317° |
| 2026-05-07 14:48 | 25.95800 | 36.66047 | 37836 ft | 509 kts | 317° |
| 2026-05-07 14:48 | 26.02329 | 36.60973 | 37844 ft | 509 kts | 318° |
| 2026-05-07 14:49 | 26.08826 | 36.55920 | 37851 ft | 507 kts | 318° |
| 2026-05-07 14:49 | 26.15367 | 36.50822 | 37848 ft | 506 kts | 318° |
| 2026-05-07 14:50 | 26.21003 | 36.45304 | 37854 ft | 495 kts | 307° |
| 2026-05-07 14:50 | 26.26121 | 36.39413 | 37853 ft | 494 kts | 307° |
| 2026-05-07 14:51 | 26.31239 | 36.33508 | 37860 ft | 495 kts | 307° |
| 2026-05-07 14:51 | 26.36311 | 36.27654 | 37860 ft | 493 kts | 307° |
| 2026-05-07 14:52 | 26.41368 | 36.21807 | 37857 ft | 495 kts | 307° |
| 2026-05-07 14:52 | 26.46428 | 36.15951 | 37849 ft | 495 kts | 307° |
| 2026-05-07 14:53 | 26.51463 | 36.10117 | 37849 ft | 495 kts | 308° |
| 2026-05-07 14:53 | 26.56481 | 36.04295 | 37852 ft | 495 kts | 308° |
| 2026-05-07 14:54 | 26.61441 | 35.98532 | 37849 ft | 495 kts | 308° |
| 2026-05-07 14:54 | 26.66425 | 35.92735 | 37849 ft | 493 kts | 308° |
| 2026-05-07 14:55 | 26.71385 | 35.86955 | 37849 ft | 494 kts | 308° |
| 2026-05-07 14:55 | 26.76312 | 35.81209 | 37849 ft | 492 kts | 308° |
| 2026-05-07 14:56 | 26.81200 | 35.75499 | 37848 ft | 495 kts | 308° |
| 2026-05-07 14:56 | 26.86227 | 35.69619 | 37855 ft | 496 kts | 308° |
| 2026-05-07 14:57 | 26.91172 | 35.63830 | 37864 ft | 494 kts | 308° |
| 2026-05-07 14:57 | 26.95964 | 35.58212 | 37866 ft | 494 kts | 309° |
| 2026-05-07 14:58 | 27.00814 | 35.52517 | 37868 ft | 495 kts | 309° |
| 2026-05-07 14:58 | 27.05752 | 35.46711 | 37866 ft | 495 kts | 309° |
| 2026-05-07 14:59 | 27.10784 | 35.40787 | 37866 ft | 495 kts | 309° |
| 2026-05-07 14:59 | 27.15910 | 35.34745 | 37853 ft | 494 kts | 309° |
| 2026-05-07 15:00 | 27.20792 | 35.28981 | 37864 ft | 493 kts | 309° |
| 2026-05-07 15:00 | 27.25766 | 35.23100 | 37855 ft | 492 kts | 309° |
| 2026-05-07 15:01 | 27.30715 | 35.17240 | 37850 ft | 492 kts | 309° |
| 2026-05-07 15:01 | 27.35923 | 35.11066 | 37845 ft | 492 kts | 309° |
| 2026-05-07 15:02 | 27.41112 | 35.04905 | 37851 ft | 493 kts | 309° |
| 2026-05-07 15:02 | 27.45956 | 34.99147 | 37850 ft | 491 kts | 309° |
| 2026-05-07 15:03 | 27.50765 | 34.93421 | 37863 ft | 490 kts | 309° |
| 2026-05-07 15:03 | 27.55649 | 34.88065 | 37869 ft | 493 kts | 313° |
| 2026-05-07 15:04 | 27.60773 | 34.82716 | 37861 ft | 492 kts | 313° |
| 2026-05-07 15:04 | 27.65880 | 34.77349 | 37875 ft | 489 kts | 313° |
| 2026-05-07 15:05 | 27.71028 | 34.71914 | 37877 ft | 489 kts | 313° |
| 2026-05-07 15:05 | 27.76348 | 34.66280 | 37861 ft | 489 kts | 313° |
| 2026-05-07 15:06 | 27.81662 | 34.60642 | 37884 ft | 487 kts | 314° |
| 2026-05-07 15:06 | 27.87221 | 34.54731 | 37881 ft | 487 kts | 314° |
| 2026-05-07 15:07 | 27.92767 | 34.48825 | 37889 ft | 486 kts | 314° |
| 2026-05-07 15:07 | 27.98336 | 34.42895 | 37883 ft | 485 kts | 314° |
| 2026-05-07 15:08 | 28.03429 | 34.36353 | 37886 ft | 482 kts | 307° |
| 2026-05-07 15:08 | 28.08320 | 34.29578 | 37921 ft | 482 kts | 307° |
| 2026-05-07 15:09 | 28.13031 | 34.23048 | 37943 ft | 481 kts | 307° |
| 2026-05-07 15:09 | 28.17823 | 34.16398 | 37987 ft | 481 kts | 307° |
| 2026-05-07 15:10 | 28.22708 | 34.09608 | 38035 ft | 480 kts | 307° |
| 2026-05-07 15:10 | 28.27536 | 34.02887 | 38097 ft | 479 kts | 307° |
| 2026-05-07 15:11 | 28.32311 | 33.96230 | 38105 ft | 479 kts | 308° |
| 2026-05-07 15:11 | 28.37109 | 33.89532 | 38074 ft | 480 kts | 308° |
| 2026-05-07 15:12 | 28.41938 | 33.82780 | 38055 ft | 479 kts | 308° |
| 2026-05-07 15:12 | 28.46793 | 33.75979 | 38031 ft | 478 kts | 308° |
| 2026-05-07 15:13 | 28.51601 | 33.69234 | 38023 ft | 477 kts | 308° |
| 2026-05-07 15:13 | 28.56442 | 33.62440 | 38021 ft | 477 kts | 308° |
| 2026-05-07 15:14 | 28.61192 | 33.55777 | 38002 ft | 476 kts | 308° |
| 2026-05-07 15:14 | 28.65984 | 33.49034 | 37989 ft | 474 kts | 308° |
| 2026-05-07 15:15 | 28.70754 | 33.42302 | 37977 ft | 474 kts | 308° |
| 2026-05-07 15:15 | 28.75498 | 33.35596 | 37969 ft | 475 kts | 308° |
| 2026-05-07 15:16 | 28.80180 | 33.28968 | 37958 ft | 473 kts | 308° |
| 2026-05-07 15:16 | 28.84872 | 33.22314 | 37950 ft | 471 kts | 308° |
| 2026-05-07 15:17 | 28.89545 | 33.15678 | 37947 ft | 472 kts | 308° |
| 2026-05-07 15:17 | 28.94249 | 33.08986 | 37942 ft | 471 kts | 308° |
| 2026-05-07 15:18 | 28.96563 | 33.05690 | 37828 ft | 463 kts | 308° |
| 2026-05-07 15:18 | 28.98825 | 33.02467 | 37061 ft | 462 kts | 308° |
| 2026-05-07 15:18 | 29.00839 | 32.99594 | 36169 ft | 462 kts | 309° |
| 2026-05-07 15:18 | 29.02862 | 32.96707 | 35463 ft | 461 kts | 309° |
| 2026-05-07 15:19 | 29.04928 | 32.93756 | 34745 ft | 462 kts | 309° |
| 2026-05-07 15:19 | 29.07085 | 32.90673 | 33873 ft | 465 kts | 310° |
| 2026-05-07 15:19 | 29.09219 | 32.87621 | 32887 ft | 467 kts | 309° |
| 2026-05-07 15:19 | 29.11330 | 32.84599 | 31953 ft | 468 kts | 309° |
| 2026-05-07 15:20 | 29.13511 | 32.81476 | 31014 ft | 468 kts | 309° |
| 2026-05-07 15:20 | 29.15688 | 32.78355 | 30291 ft | 464 kts | 309° |
| 2026-05-07 15:20 | 29.17854 | 32.75247 | 29790 ft | 454 kts | 309° |
| 2026-05-07 15:20 | 29.19918 | 32.72284 | 29241 ft | 447 kts | 309° |
| 2026-05-07 15:21 | 29.21977 | 32.69324 | 28664 ft | 441 kts | 309° |
| 2026-05-07 15:21 | 29.24055 | 32.66337 | 28083 ft | 435 kts | 309° |
| 2026-05-07 15:21 | 29.26050 | 32.63464 | 27514 ft | 429 kts | 309° |
| 2026-05-07 15:21 | 29.28036 | 32.60605 | 26948 ft | 424 kts | 309° |
| 2026-05-07 15:22 | 29.29958 | 32.57822 | 26397 ft | 418 kts | 309° |
| 2026-05-07 15:22 | 29.31849 | 32.55069 | 25838 ft | 423 kts | 309° |
| 2026-05-07 15:22 | 29.33769 | 32.52273 | 25257 ft | 432 kts | 309° |
| 2026-05-07 15:22 | 29.35700 | 32.49458 | 24677 ft | 428 kts | 309° |
| 2026-05-07 15:23 | 29.37635 | 32.46636 | 24084 ft | 423 kts | 309° |
| 2026-05-07 15:23 | 29.39547 | 32.43847 | 23494 ft | 419 kts | 309° |
| 2026-05-07 15:23 | 29.41442 | 32.41079 | 22924 ft | 415 kts | 309° |
| 2026-05-07 15:23 | 29.43343 | 32.38301 | 22338 ft | 412 kts | 309° |
| 2026-05-07 15:24 | 29.45244 | 32.35522 | 21747 ft | 409 kts | 309° |
| 2026-05-07 15:24 | 29.47111 | 32.32791 | 21173 ft | 406 kts | 309° |
| 2026-05-07 15:24 | 29.48995 | 32.30032 | 20572 ft | 402 kts | 309° |
| 2026-05-07 15:24 | 29.50795 | 32.27396 | 19997 ft | 399 kts | 309° |
| 2026-05-07 15:25 | 29.52648 | 32.24679 | 19400 ft | 396 kts | 309° |
| 2026-05-07 15:25 | 29.54452 | 32.22033 | 18799 ft | 392 kts | 309° |
| 2026-05-07 15:25 | 29.56253 | 32.19390 | 18196 ft | 388 kts | 309° |
| 2026-05-07 15:25 | 29.58007 | 32.16814 | 17607 ft | 384 kts | 309° |
| 2026-05-07 15:26 | 29.59724 | 32.14289 | 17027 ft | 381 kts | 309° |
| 2026-05-07 15:26 | 29.61376 | 32.11861 | 16466 ft | 378 kts | 309° |
| 2026-05-07 15:26 | 29.63007 | 32.09462 | 15897 ft | 375 kts | 309° |
| 2026-05-07 15:26 | 29.64604 | 32.07110 | 15342 ft | 372 kts | 309° |
| 2026-05-07 15:27 | 29.66207 | 32.04749 | 14794 ft | 368 kts | 309° |
| 2026-05-07 15:27 | 29.67823 | 32.02367 | 14233 ft | 365 kts | 309° |
| 2026-05-07 15:27 | 29.69448 | 31.99970 | 13644 ft | 363 kts | 309° |
| 2026-05-07 15:27 | 29.71054 | 31.97600 | 13091 ft | 360 kts | 309° |
| 2026-05-07 15:28 | 29.72667 | 31.95218 | 12521 ft | 357 kts | 309° |
| 2026-05-07 15:28 | 29.74246 | 31.92885 | 11961 ft | 355 kts | 309° |
| 2026-05-07 15:28 | 29.75810 | 31.90573 | 11407 ft | 352 kts | 309° |
| 2026-05-07 15:28 | 29.77389 | 31.88238 | 10855 ft | 350 kts | 309° |
| 2026-05-07 15:29 | 29.78923 | 31.85955 | 10659 ft | 336 kts | 308° |
| 2026-05-07 15:29 | 29.80344 | 31.83742 | 10565 ft | 320 kts | 308° |
| 2026-05-07 15:29 | 29.81704 | 31.81604 | 10457 ft | 307 kts | 308° |
| 2026-05-07 15:29 | 29.83015 | 31.79553 | 10335 ft | 294 kts | 308° |
| 2026-05-07 15:30 | 29.84258 | 31.77611 | 10198 ft | 284 kts | 308° |
| 2026-05-07 15:30 | 29.85526 | 31.75633 | 10060 ft | 272 kts | 308° |
| 2026-05-07 15:30 | 29.86761 | 31.73708 | 9770 ft | 268 kts | 308° |
| 2026-05-07 15:30 | 29.87995 | 31.71784 | 9361 ft | 269 kts | 309° |
| 2026-05-07 15:31 | 29.89219 | 31.69874 | 8975 ft | 268 kts | 309° |
| 2026-05-07 15:31 | 29.90431 | 31.67979 | 8617 ft | 267 kts | 309° |
| 2026-05-07 15:31 | 29.91410 | 31.66098 | 8264 ft | 268 kts | 292° |
| 2026-05-07 15:31 | 29.91930 | 31.63759 | 7648 ft | 280 kts | 284° |
| 2026-05-07 15:32 | 29.92328 | 31.61333 | 7054 ft | 287 kts | 283° |
| 2026-05-07 15:32 | 29.92707 | 31.58949 | 6819 ft | 280 kts | 284° |
| 2026-05-07 15:32 | 29.93083 | 31.56630 | 6326 ft | 284 kts | 284° |
| 2026-05-07 15:32 | 29.93477 | 31.54197 | 6083 ft | 278 kts | 284° |
| 2026-05-07 15:33 | 29.93871 | 31.51778 | 5581 ft | 282 kts | 284° |
| 2026-05-07 15:33 | 29.94251 | 31.49381 | 5311 ft | 277 kts | 281° |
| 2026-05-07 15:33 | 29.94019 | 31.46902 | 4811 ft | 287 kts | 251° |
| 2026-05-07 15:33 | 29.92913 | 31.44811 | 4389 ft | 291 kts | 236° |
| 2026-05-07 15:34 | 29.91628 | 31.42856 | 4050 ft | 288 kts | 235° |
| 2026-05-07 15:34 | 29.90374 | 31.40965 | 3858 ft | 278 kts | 235° |
| 2026-05-07 15:34 | 29.89208 | 31.39208 | 3848 ft | 263 kts | 235° |
| 2026-05-07 15:34 | 29.88104 | 31.37260 | 3856 ft | 271 kts | 251° |
| 2026-05-07 15:35 | 29.87780 | 31.34988 | 3852 ft | 264 kts | 278° |
| 2026-05-07 15:35 | 29.88256 | 31.33028 | 3844 ft | 247 kts | 302° |
| 2026-05-07 15:35 | 29.89317 | 31.31603 | 3831 ft | 222 kts | 327° |
| 2026-05-07 15:35 | 29.90416 | 31.30328 | 3792 ft | 214 kts | 304° |
| 2026-05-07 15:36 | 29.90705 | 31.28572 | 3709 ft | 210 kts | 265° |
| 2026-05-07 15:36 | 29.90071 | 31.27075 | 3644 ft | 201 kts | 228° |
| 2026-05-07 15:36 | 29.89103 | 31.25903 | 3648 ft | 201 kts | 232° |
| 2026-05-07 15:36 | 29.88192 | 31.24663 | 3637 ft | 200 kts | 233° |
| 2026-05-07 15:37 | 29.87271 | 31.23409 | 3643 ft | 212 kts | 232° |
| 2026-05-07 15:37 | 29.86183 | 31.21903 | 3672 ft | 257 kts | 234° |
| 2026-05-07 15:37 | 29.85433 | 31.19943 | 3663 ft | 267 kts | 268° |
| 2026-05-07 15:37 | 29.85796 | 31.17887 | 3611 ft | 243 kts | 306° |
| 2026-05-07 15:38 | 29.87026 | 31.16724 | 3545 ft | 214 kts | 347° |
| 2026-05-07 15:38 | 29.88414 | 31.16780 | 3488 ft | 193 kts | 24° |
| 2026-05-07 15:38 | 29.89518 | 31.17547 | 3458 ft | 179 kts | 34° |
| 2026-05-07 15:38 | 29.90526 | 31.18324 | 3420 ft | 166 kts | 34° |
| 2026-05-07 15:39 | 29.91484 | 31.19064 | 3311 ft | 157 kts | 34° |
| 2026-05-07 15:39 | 29.92442 | 31.19804 | 3024 ft | 158 kts | 34° |
| 2026-05-07 15:39 | 29.93392 | 31.20537 | 2966 ft | 159 kts | 34° |
| 2026-05-07 15:39 | 29.94336 | 31.21231 | 2950 ft | 160 kts | 24° |
| 2026-05-07 15:40 | 29.95394 | 31.21671 | 2956 ft | 161 kts | 21° |
| 2026-05-07 15:40 | 29.96462 | 31.22209 | 2954 ft | 158 kts | 35° |
| 2026-05-07 15:40 | 29.97290 | 31.23072 | 2948 ft | 152 kts | 45° |
| 2026-05-07 15:40 | 29.97979 | 31.23968 | 2949 ft | 145 kts | 47° |
| 2026-05-07 15:41 | 29.98663 | 31.24882 | 2951 ft | 140 kts | 47° |
| 2026-05-07 15:41 | 29.99316 | 31.25750 | 2957 ft | 137 kts | 47° |
| 2026-05-07 15:41 | 29.99950 | 31.26594 | 2969 ft | 137 kts | 47° |
| 2026-05-07 15:41 | 30.00581 | 31.27428 | 2960 ft | 133 kts | 47° |
| 2026-05-07 15:42 | 30.01225 | 31.28279 | 2844 ft | 137 kts | 47° |
| 2026-05-07 15:42 | 30.01842 | 31.29095 | 2685 ft | 135 kts | 47° |
| 2026-05-07 15:42 | 30.02458 | 31.29908 | 2522 ft | 133 kts | 47° |
| 2026-05-07 15:42 | 30.03071 | 31.30719 | 2368 ft | 134 kts | 46° |
| 2026-05-07 15:43 | 30.03702 | 31.31551 | 2194 ft | 132 kts | 46° |
| 2026-05-07 15:43 | 30.04316 | 31.32364 | 2023 ft | 133 kts | 46° |
| 2026-05-07 15:43 | 30.04949 | 31.33199 | 1838 ft | 132 kts | 46° |
| 2026-05-07 15:43 | 30.05594 | 31.34052 | 1667 ft | 133 kts | 46° |
| 2026-05-07 15:44 | 30.06235 | 31.34902 | 1486 ft | 134 kts | 46° |
| 2026-05-07 15:44 | 30.06864 | 31.35731 | 1311 ft | 132 kts | 46° |
| 2026-05-07 15:44 | 30.07524 | 31.36603 | 1120 ft | 134 kts | 46° |
| 2026-05-07 15:44 | 30.08152 | 31.37436 | 899 ft | 133 kts | 47° |
| 2026-05-07 15:45 | 30.08802 | 31.38278 | 726 ft | 132 kts | 46° |
| 2026-05-07 15:45 | 30.09445 | 31.39150 | 553 ft | 136 kts | 46° |
| 2026-05-07 15:45 | 30.10121 | 31.40024 | 422 ft | 135 kts | 47° |
| 2026-05-07 15:45 | 30.10738 | 31.40840 | 394 ft | 107 kts | 49° |
| 2026-05-07 15:46 | 30.11338 | 31.41563 | 394 ft | 31 kts | 18° |
| 2026-05-07 15:46 | 30.11529 | 31.41625 | 394 ft | 15 kts | 353° |
| 2026-05-07 15:46 | 30.11555 | 31.41544 | 394 ft | 13 kts | 241° |
| 2026-05-07 15:47 | 30.11497 | 31.41457 | 394 ft | 13 kts | 229° |
| 2026-05-07 15:47 | 30.11438 | 31.41378 | 394 ft | 11 kts | 228° |
| 2026-05-07 15:47 | 30.11389 | 31.41315 | 394 ft | 9 kts | 228° |
| 2026-05-07 15:47 | 30.11344 | 31.41256 | 394 ft | 10 kts | 228° |
| 2026-05-07 15:48 | 30.11289 | 31.41185 | 394 ft | 14 kts | 229° |
| 2026-05-07 15:48 | 30.11209 | 31.41077 | 394 ft | 20 kts | 229° |
| 2026-05-07 15:48 | 30.11118 | 31.40954 | 394 ft | 19 kts | 229° |
| 2026-05-07 15:48 | 30.11067 | 31.40837 | 394 ft | 14 kts | 282° |
| 2026-05-07 15:49 | 30.11072 | 31.40737 | 394 ft | 13 kts | 234° |
| 2026-05-07 15:49 | 30.11009 | 31.40652 | 393 ft | 14 kts | 228° |
| 2026-05-07 15:49 | 30.10934 | 31.40554 | 393 ft | 18 kts | 230° |
| 2026-05-07 15:49 | 30.10843 | 31.40431 | 393 ft | 21 kts | 229° |
| 2026-05-07 15:50 | 30.10745 | 31.40301 | 393 ft | 20 kts | 229° |
| 2026-05-07 15:50 | 30.10649 | 31.40174 | 393 ft | 20 kts | 229° |
| 2026-05-07 15:50 | 30.10555 | 31.40049 | 393 ft | 19 kts | 228° |
| 2026-05-07 15:50 | 30.10486 | 31.39929 | 393 ft | 16 kts | 270° |
| 2026-05-07 15:51 | 30.10564 | 31.39848 | 393 ft | 15 kts | 340° |
| 2026-05-07 15:51 | 30.10649 | 31.39805 | 393 ft | 11 kts | 303° |
| 2026-05-07 15:51 | 30.10647 | 31.39717 | 393 ft | 13 kts | 255° |
| 2026-05-07 15:51 | 30.10625 | 31.39619 | 393 ft | 10 kts | 256° |
| 2026-05-07 15:52 | 30.10607 | 31.39542 | 393 ft | 7 kts | 256° |
| 2026-05-07 15:52 | 30.10620 | 31.39490 | 393 ft | 5 kts | 316° |
| 2026-05-07 15:52 | 30.10661 | 31.39470 | 393 ft | 4 kts | 345° |
| 2026-05-07 15:52 | 30.10681 | 31.39458 | 393 ft | 2 kts | 308° |
| 2026-05-07 15:53 | 30.10683 | 31.39437 | 393 ft | 3 kts | 263° |
| 2026-05-07 15:53 | 30.10680 | 31.39412 | 393 ft | 2 kts | 260° |
| 2026-05-07 15:53 | 30.10677 | 31.39396 | 393 ft | 1 kts | 257° |
| 2026-05-07 15:53 | 30.10675 | 31.39390 | 393 ft | 0 kts | 256° |
| 2026-05-07 15:54 | 30.10675 | 31.39389 | 393 ft | 0 kts | 256° |
| 2026-05-07 15:54 | 30.10675 | 31.39386 | 393 ft | 0 kts | 256° |
| 2026-05-07 15:54 | 30.10675 | 31.39385 | 393 ft | 0 kts | 256° |